Eunice, Louisiana
Current Conditions -  °F | °C
As of 1:15 PM on Thursday 30 Oct 2014 (Local Time) from KOPL Reporting Station
Clear Clear  
Wind Chill: 71°   Ceiling: Unl
Heat Index: 71°   Visibility: 10mi
Dew Point: 42°   Wind: 5mph
Humidity: 35%   Direction: 20°NNE
Pressure: 30.11"   Gusts: NA
Location:  30.49°N, 92.41°W
Report Text: KOPL 301815Z AUTO 02004KT 10SM CLR 22/06 A3011 RMK AO2 T02160056
Loading
Personal Weather Stations






























Interactive Weather Map
Tropical Storm Tracking
New forecast layout! Learn more

10-Day Weather Forecast

Advertisements
Track Severe Weather on mobile